Terminal Aerodrome Forecast
Issued by NWS

Current Version | Previous Version | Graphics & Text | Print | Product List | Glossary On
Versions: 1 2 3 4 5 6 7 8 9 10 11 12 13 14 15 16 17 18 19 20 21 22
862
FTUS41 KPBZ 222329
TAFHLG
TAF
KHLG 222329Z 2300/2324 23006KT P6SM OVC035
     FM230100 20005KT P6SM BKN025
     FM230400 20003KT P6SM OVC012
     FM230700 20004KT 4SM BR OVC008
     FM231700 23007KT P6SM VCSH BKN012
     FM232000 24008KT P6SM BKN030=

USA.gov is the U.S. government's official web portal to all federal, state and local government web resources and services.